createdAt,value
2019-01-18T00:02:01.416Z,4.22
2019-01-18T00:04:31.381Z,3.80
2019-01-18T00:07:01.317Z,3.58
2019-01-18T00:09:34.172Z,3.87
2019-01-18T00:12:04.085Z,3.67
2019-01-18T00:14:34.334Z,3.37
2019-01-18T00:17:04.467Z,3.33
2019-01-18T00:19:34.354Z,3.10
2019-01-18T00:22:04.329Z,3.00
2019-01-18T00:24:34.253Z,3.20
2019-01-18T00:27:04.141Z,3.30
2019-01-18T00:29:34.078Z,3.25
2019-01-18T00:32:04.213Z,4.08
2019-01-18T00:34:34.473Z,3.55
2019-01-18T00:37:04.478Z,4.42
2019-01-18T00:39:34.383Z,4.33
2019-01-18T00:42:13.333Z,4.75
2019-01-18T00:44:43.258Z,4.80
2019-01-18T00:47:13.233Z,5.35
2019-01-18T00:49:43.419Z,5.30
2019-01-18T00:52:13.329Z,6.00
2019-01-18T00:54:43.246Z,6.05
2019-01-18T00:57:13.250Z,6.22
2019-01-18T00:59:43.394Z,5.85
2019-01-18T01:02:13.305Z,6.35
2019-01-18T01:04:43.250Z,5.60
2019-01-18T01:07:13.421Z,6.10
2019-01-18T01:09:43.307Z,5.65
2019-01-18T01:12:13.831Z,6.15
2019-01-18T01:14:43.968Z,6.58
2019-01-18T01:17:13.879Z,6.15
2019-01-18T01:19:43.853Z,5.85
2019-01-18T01:22:13.761Z,5.40
2019-01-18T01:24:43.670Z,5.90
2019-01-18T01:27:15.294Z,5.37
2019-01-18T01:29:45.246Z,5.55
2019-01-18T01:32:15.258Z,4.90
2019-01-18T01:34:48.146Z,5.53
2019-01-18T01:37:18.316Z,6.20
2019-01-18T01:39:48.252Z,6.50
2019-01-18T01:42:18.233Z,6.00
2019-01-18T01:44:48.156Z,5.97
2019-01-18T01:47:18.325Z,5.95
2019-01-18T01:49:48.536Z,6.20
2019-01-18T01:52:18.458Z,6.25
2019-01-18T01:54:48.743Z,5.12
2019-01-18T01:57:18.706Z,5.65
2019-01-18T01:59:49.994Z,6.00
2019-01-18T02:02:20.261Z,5.95
2019-01-18T02:04:50.212Z,5.62
2019-01-18T02:07:20.433Z,5.50
2019-01-18T02:09:50.675Z,5.90
2019-01-18T02:12:20.617Z,6.00
2019-01-18T02:14:50.544Z,5.92
2019-01-18T02:17:20.438Z,6.42
2019-01-18T02:19:50.385Z,5.85
2019-01-18T02:22:20.295Z,5.80
2019-01-18T02:24:50.190Z,6.10
2019-01-18T02:27:20.150Z,5.47
2019-01-18T02:29:56.354Z,6.22
2019-01-18T02:32:21.642Z,5.97
2019-01-18T02:34:51.594Z,5.50
2019-01-18T02:37:21.551Z,5.45
2019-01-18T02:39:51.466Z,6.05
2019-01-18T02:42:21.448Z,6.05
2019-01-18T02:44:51.352Z,5.30
2019-01-18T02:47:21.250Z,6.03
2019-01-18T02:49:51.215Z,5.55
2019-01-18T02:52:21.373Z,6.17
2019-01-18T02:54:51.285Z,5.60
2019-01-18T02:57:21.524Z,5.22
2019-01-18T02:59:51.419Z,5.12
2019-01-18T03:02:21.362Z,6.20
2019-01-18T03:04:51.588Z,6.40
2019-01-18T03:07:21.504Z,5.60
2019-01-18T03:09:51.463Z,4.97
2019-01-18T03:12:21.434Z,5.45
2019-01-18T03:14:51.623Z,4.67
2019-01-18T03:17:21.765Z,5.45
2019-01-18T03:19:51.736Z,5.08
2019-01-18T03:22:21.699Z,5.42
2019-01-18T03:24:51.659Z,5.50
2019-01-18T03:27:21.639Z,6.05
2019-01-18T03:29:51.536Z,4.90
2019-01-18T03:32:21.677Z,6.03
2019-01-18T03:34:51.633Z,5.70
2019-01-18T03:37:21.545Z,4.97
2019-01-18T03:39:51.441Z,5.90
2019-01-18T03:42:21.408Z,5.78
2019-01-18T03:44:51.313Z,5.25
2019-01-18T03:47:21.520Z,5.30
2019-01-18T03:49:51.485Z,5.10
2019-01-18T03:52:21.383Z,5.12
2019-01-18T03:54:51.295Z,5.33
2019-01-18T03:57:21.278Z,4.97
2019-01-18T03:59:51.405Z,5.08
2019-01-18T04:02:21.621Z,5.05
2019-01-18T04:04:51.565Z,5.35
2019-01-18T04:07:21.532Z,5.05
2019-01-18T04:09:51.435Z,4.75
2019-01-18T04:12:21.410Z,5.15
2019-01-18T04:14:51.312Z,4.85
2019-01-18T04:17:21.226Z,5.05
2019-01-18T04:19:51.182Z,5.28
2019-01-18T04:22:21.340Z,5.80
2019-01-18T04:24:51.292Z,6.10
2019-01-18T04:27:21.214Z,6.12
2019-01-18T04:29:51.139Z,6.40
2019-01-18T04:32:21.053Z,5.95
2019-01-18T04:34:50.994Z,6.30
2019-01-18T04:37:20.920Z,6.10
2019-01-18T04:39:56.544Z,6.30
2019-01-18T04:42:26.855Z,6.25
2019-01-18T04:44:56.763Z,6.05
2019-01-18T04:47:26.915Z,5.75
2019-01-18T04:49:57.120Z,5.85
2019-01-18T04:52:28.120Z,5.22
2019-01-18T04:54:58.124Z,5.20
2019-01-18T04:57:28.086Z,5.42
2019-01-18T04:59:57.985Z,5.70
2019-01-18T05:02:27.887Z,5.92
2019-01-18T05:04:57.847Z,6.40
2019-01-18T05:07:27.751Z,6.15
2019-01-18T05:09:57.662Z,6.50
2019-01-18T05:12:27.614Z,6.03
2019-01-18T05:14:57.526Z,5.62
2019-01-18T05:17:27.667Z,6.60
2019-01-18T05:19:57.994Z,6.97
2019-01-18T05:22:27.902Z,6.87
2019-01-18T05:24:57.808Z,7.33
2019-01-18T05:27:27.796Z,6.22
2019-01-18T05:29:57.958Z,5.53
2019-01-18T05:32:27.888Z,5.58
2019-01-18T05:34:58.090Z,5.50
2019-01-18T05:37:30.976Z,5.72
2019-01-18T05:40:00.895Z,6.00
2019-01-18T05:42:31.232Z,6.53
2019-01-18T05:45:01.425Z,5.40
2019-01-18T05:47:31.663Z,5.45
2019-01-18T05:50:01.614Z,5.85
2019-01-18T05:52:32.572Z,5.85
2019-01-18T05:55:02.623Z,6.00
2019-01-18T05:57:32.576Z,6.17
2019-01-18T06:00:02.500Z,5.35
2019-01-18T06:02:32.444Z,6.25
2019-01-18T06:05:03.290Z,6.17
2019-01-18T06:07:33.213Z,6.60
2019-01-18T06:10:04.313Z,6.65
2019-01-18T06:12:34.287Z,6.42
2019-01-18T06:15:07.112Z,6.42
2019-01-18T06:17:37.511Z,6.53
2019-01-18T06:20:14.373Z,7.08
2019-01-18T06:22:44.602Z,7.83
2019-01-18T06:25:14.621Z,9.60
2019-01-18T06:27:44.617Z,8.18
2019-01-18T06:30:22.538Z,8.18
2019-01-18T06:32:52.499Z,9.70
2019-01-18T06:35:22.413Z,8.33
2019-01-18T06:37:52.319Z,8.40
2019-01-18T06:40:23.857Z,9.03
2019-01-18T06:42:53.780Z,6.90
2019-01-18T06:45:30.477Z,7.80
2019-01-18T06:48:00.393Z,7.33
2019-01-18T06:50:36.935Z,12.80
2019-01-18T06:53:02.419Z,8.68
2019-01-18T06:55:32.324Z,7.55
2019-01-18T06:58:05.181Z,7.85
2019-01-18T07:00:35.403Z,6.83
2019-01-18T07:03:05.495Z,6.97
2019-01-18T07:05:35.420Z,6.70
2019-01-18T07:08:07.004Z,7.85
2019-01-18T07:10:37.345Z,7.03
2019-01-18T07:13:07.245Z,7.70
2019-01-18T07:15:37.215Z,7.03
2019-01-18T07:18:07.111Z,7.60
2019-01-18T07:20:37.044Z,7.40
2019-01-18T07:23:07.341Z,7.78
2019-01-18T07:25:37.256Z,8.10
2019-01-18T07:28:07.166Z,8.88
2019-01-18T07:30:38.390Z,8.90
2019-01-18T07:33:08.867Z,9.83
2019-01-18T07:35:39.033Z,10.28
2019-01-18T07:38:08.981Z,10.23
2019-01-18T07:40:39.185Z,11.45
2019-01-18T07:43:09.146Z,11.10
2019-01-18T07:45:39.408Z,10.35
2019-01-18T07:48:09.336Z,10.82
2019-01-18T07:50:39.249Z,10.60
2019-01-18T07:53:09.212Z,12.00
2019-01-18T07:55:39.137Z,12.40
2019-01-18T07:58:09.049Z,11.85
2019-01-18T08:00:39.323Z,11.75
2019-01-18T08:03:09.228Z,11.57
2019-01-18T08:05:39.158Z,13.70
2019-01-18T08:08:09.463Z,14.15
2019-01-18T08:10:39.375Z,14.07
2019-01-18T08:15:35.507Z,10.30
2019-01-18T08:18:04.631Z,9.33
2019-01-18T08:20:36.708Z,11.18
2019-01-18T08:23:05.855Z,11.20
2019-01-18T08:25:34.922Z,10.23
2019-01-18T08:28:04.057Z,9.73
2019-01-18T08:30:33.180Z,9.75
2019-01-18T08:33:02.327Z,9.88
2019-01-18T08:35:31.686Z,11.80
2019-01-18T08:38:01.179Z,9.68
2019-01-18T08:40:36.620Z,10.20
2019-01-18T08:43:08.044Z,10.55
2019-01-18T08:45:44.278Z,11.68
2019-01-18T08:48:13.415Z,12.25
2019-01-18T08:50:43.033Z,11.85
2019-01-18T08:53:12.425Z,10.80
2019-01-18T08:55:41.630Z,11.07
2019-01-18T08:58:10.935Z,11.03
2019-01-18T09:00:40.021Z,11.78
2019-01-18T09:03:09.168Z,11.20
2019-01-18T09:05:38.230Z,11.28
2019-01-18T09:08:07.317Z,12.07
2019-01-18T09:10:37.739Z,14.17
2019-01-18T09:13:07.161Z,14.90
2019-01-18T09:15:36.262Z,13.65
2019-01-18T09:18:08.309Z,14.38
2019-01-18T09:20:37.404Z,15.25
2019-01-18T09:23:06.835Z,15.40
2019-01-18T09:25:36.436Z,15.15
2019-01-18T09:28:05.804Z,15.10
2019-01-18T09:30:35.732Z,14.77
2019-01-18T09:33:06.347Z,13.93
2019-01-18T09:35:36.280Z,15.00
2019-01-18T09:38:07.659Z,14.05
2019-01-18T09:40:36.845Z,12.55
2019-01-18T09:43:06.205Z,12.60
2019-01-18T09:45:35.644Z,12.37
2019-01-18T09:48:06.472Z,12.10
2019-01-18T09:50:35.549Z,12.43
2019-01-18T09:53:07.258Z,12.20
2019-01-18T09:55:36.374Z,11.18
2019-01-18T09:58:05.798Z,11.28
2019-01-18T10:00:37.893Z,11.28
2019-01-18T10:03:07.008Z,11.12
2019-01-18T10:05:36.095Z,11.50
2019-01-18T10:08:05.767Z,11.85
2019-01-18T10:10:34.910Z,12.43
2019-01-18T10:13:04.272Z,11.65
2019-01-18T10:15:37.970Z,13.00
2019-01-18T10:18:07.515Z,14.95
2019-01-18T10:20:36.592Z,11.68
2019-01-18T10:23:05.692Z,12.00
2019-01-18T10:25:35.087Z,11.85
2019-01-18T10:28:04.190Z,12.93
2019-01-18T10:30:33.260Z,12.10
2019-01-18T10:33:02.402Z,12.90
2019-01-18T10:35:31.799Z,12.43
2019-01-18T10:38:00.881Z,12.68
2019-01-18T10:40:30.065Z,13.18
2019-01-18T10:42:59.184Z,11.93
2019-01-18T10:45:28.341Z,11.83
2019-01-18T10:47:57.519Z,12.73
2019-01-18T10:50:30.370Z,13.50
2019-01-18T10:52:59.450Z,14.60
2019-01-18T10:55:28.941Z,13.62
2019-01-18T10:57:58.342Z,11.83
2019-01-18T11:00:30.438Z,11.20
2019-01-18T11:02:59.581Z,11.57
2019-01-18T11:05:28.649Z,12.23
2019-01-18T11:07:57.761Z,12.53
2019-01-18T11:10:27.182Z,12.33
2019-01-18T11:12:56.270Z,12.75
2019-01-18T11:15:28.546Z,13.60
2019-01-18T11:17:57.934Z,13.48
2019-01-18T11:20:37.756Z,13.25
2019-01-18T11:23:07.027Z,12.37
2019-01-18T11:25:36.147Z,12.30
2019-01-18T11:28:05.488Z,12.00
2019-01-18T11:30:34.843Z,11.63
2019-01-18T11:33:05.529Z,10.87
2019-01-18T11:35:34.576Z,10.63
2019-01-18T11:38:03.779Z,10.80
2019-01-18T11:40:32.921Z,11.63
2019-01-18T11:43:02.109Z,11.83
2019-01-18T11:45:31.505Z,12.33
2019-01-18T11:48:00.583Z,12.37
2019-01-18T11:50:30.015Z,12.75
2019-01-18T11:52:59.408Z,15.00
2019-01-18T11:55:28.820Z,15.88
2019-01-18T11:57:58.227Z,21.57
2019-01-18T12:00:29.760Z,23.85
2019-01-18T12:02:59.178Z,24.55
2019-01-18T12:05:28.223Z,26.15
2019-01-18T12:07:57.663Z,29.95
2019-01-18T12:10:31.505Z,28.15
2019-01-18T12:13:03.334Z,25.30
2019-01-18T12:15:32.422Z,24.12
2019-01-18T12:18:01.518Z,19.62
2019-01-18T12:20:35.131Z,15.63
2019-01-18T12:23:04.294Z,14.50
2019-01-18T12:25:33.337Z,13.10
2019-01-18T12:28:02.491Z,13.83
2019-01-18T12:30:33.647Z,12.88
2019-01-18T12:33:02.734Z,13.38
2019-01-18T12:35:32.174Z,14.03
2019-01-18T12:38:01.267Z,13.62
2019-01-18T12:40:33.049Z,13.43
2019-01-18T12:43:02.424Z,12.23
2019-01-18T12:45:31.807Z,13.15
2019-01-18T12:48:00.879Z,12.03
2019-01-18T12:50:33.596Z,13.35
2019-01-18T12:53:02.773Z,14.43
2019-01-18T12:55:31.838Z,13.30
2019-01-18T12:58:01.417Z,12.78
2019-01-18T13:00:31.046Z,13.48
2019-01-18T13:03:01.125Z,13.55
2019-01-18T13:05:38.332Z,13.28
2019-01-18T13:08:07.436Z,13.05
2019-01-18T13:10:36.800Z,12.63
2019-01-18T13:13:06.552Z,12.40
2019-01-18T13:15:49.450Z,12.45
2019-01-18T13:18:18.570Z,12.05
2019-01-18T13:20:47.962Z,12.20
2019-01-18T13:23:17.038Z,11.45
2019-01-18T13:25:46.466Z,12.10
2019-01-18T13:28:15.825Z,11.88
2019-01-18T13:30:45.215Z,12.28
2019-01-18T13:33:14.632Z,10.98
2019-01-18T13:35:43.717Z,11.78
2019-01-18T13:38:12.786Z,11.65
2019-01-18T13:40:42.190Z,10.80
2019-01-18T13:43:11.251Z,11.48
2019-01-18T13:45:40.339Z,12.35
2019-01-18T13:48:09.445Z,12.43
2019-01-18T13:50:38.521Z,12.58
2019-01-18T13:53:07.613Z,12.45
2019-01-18T13:55:36.728Z,12.53
2019-01-18T13:58:06.112Z,14.03
2019-01-18T14:00:35.503Z,13.80
2019-01-18T14:03:05.520Z,14.40
2019-01-18T14:05:34.575Z,14.65
2019-01-18T14:08:03.903Z,15.72
2019-01-18T14:10:34.635Z,14.43
2019-01-18T14:13:03.700Z,16.80
2019-01-18T14:15:32.774Z,16.95
2019-01-18T14:18:01.885Z,16.27
2019-01-18T14:20:30.970Z,16.67
2019-01-18T14:23:00.142Z,17.98
2019-01-18T14:25:29.490Z,19.27
2019-01-18T14:27:58.575Z,19.23
2019-01-18T14:30:28.948Z,17.90
2019-01-18T14:32:58.330Z,18.77
2019-01-18T14:35:27.664Z,18.00
2019-01-18T14:37:56.739Z,18.27
2019-01-18T14:40:25.909Z,17.45
2019-01-18T14:42:56.268Z,19.23
2019-01-18T14:45:41.342Z,19.70
2019-01-18T14:48:10.738Z,19.23
2019-01-18T14:50:39.806Z,17.90
2019-01-18T14:53:09.908Z,19.27
2019-01-18T14:55:42.023Z,18.65
2019-01-18T14:58:11.095Z,18.12
2019-01-18T15:00:40.238Z,16.42
2019-01-18T15:03:09.618Z,16.82
2019-01-18T15:05:38.676Z,17.02
2019-01-18T15:08:08.644Z,17.70
2019-01-18T15:10:38.061Z,17.95
2019-01-18T15:13:11.898Z,16.27
2019-01-18T15:15:41.288Z,16.15
2019-01-18T15:18:10.401Z,15.23
2019-01-18T15:20:39.470Z,15.85
2019-01-18T15:23:08.927Z,16.00
2019-01-18T15:25:37.992Z,14.80
2019-01-18T15:28:07.188Z,14.73
2019-01-18T15:30:36.842Z,14.00
2019-01-18T15:33:09.465Z,13.35
2019-01-18T15:35:37.385Z,12.35
2019-01-18T15:38:07.804Z,13.88
2019-01-18T15:40:41.964Z,12.93
2019-01-18T15:43:12.543Z,13.58
2019-01-18T15:45:41.667Z,13.13
2019-01-18T15:48:10.771Z,11.93
2019-01-18T15:50:39.855Z,11.88
2019-01-18T15:53:09.230Z,12.20
2019-01-18T15:55:38.314Z,12.45
2019-01-18T15:58:08.138Z,11.28
2019-01-18T16:00:41.146Z,11.40
2019-01-18T16:03:15.785Z,12.20
2019-01-18T16:05:41.003Z,8.98
2019-01-18T16:08:10.728Z,11.05
2019-01-18T16:10:39.792Z,11.28
2019-01-18T16:13:09.271Z,12.60
2019-01-18T16:15:58.228Z,11.73
2019-01-18T16:18:27.562Z,11.60
2019-01-18T16:20:56.761Z,12.40
2019-01-18T16:23:25.884Z,12.58
2019-01-18T16:25:54.968Z,12.40
2019-01-18T16:28:24.109Z,12.25
2019-01-18T16:30:53.468Z,12.20
2019-01-18T16:33:23.460Z,12.70
2019-01-18T16:35:53.057Z,12.37
2019-01-18T16:38:22.191Z,12.95
2019-01-18T16:40:51.263Z,12.28
2019-01-18T16:43:31.473Z,12.73
2019-01-18T16:46:00.534Z,12.78
2019-01-18T16:48:29.892Z,12.05
2019-01-18T16:50:59.029Z,12.43
2019-01-18T16:53:28.373Z,12.05
2019-01-18T16:55:57.434Z,12.23
2019-01-18T16:58:26.803Z,12.30
2019-01-18T17:01:00.381Z,13.45
2019-01-18T17:03:30.664Z,12.60
2019-01-18T17:06:00.249Z,11.55
2019-01-18T17:08:29.664Z,13.85
2019-01-18T17:10:59.053Z,14.43
2019-01-18T17:13:28.526Z,13.20
2019-01-18T17:15:57.611Z,12.98
2019-01-18T17:18:27.313Z,14.25
2019-01-18T17:20:56.459Z,13.98
2019-01-18T17:23:25.814Z,14.07
2019-01-18T17:25:55.296Z,14.20
2019-01-18T17:28:24.588Z,14.33
2019-01-18T17:30:53.683Z,14.55
2019-01-18T17:33:23.032Z,15.43
2019-01-18T17:36:08.601Z,15.13
2019-01-18T17:38:51.305Z,13.75
2019-01-18T17:41:45.195Z,14.07
2019-01-18T17:44:27.900Z,14.10
2019-01-18T17:47:13.470Z,14.38
2019-01-18T17:49:56.314Z,15.60
2019-01-18T17:52:57.106Z,15.43
2019-01-18T17:55:33.912Z,14.75
2019-01-18T17:58:19.626Z,14.98
2019-01-18T18:01:08.567Z,12.63
2019-01-18T18:04:15.297Z,20.05
2019-01-18T18:06:52.051Z,18.45
2019-01-18T18:09:28.898Z,14.80
2019-01-18T18:12:08.638Z,14.63
2019-01-18T18:14:54.729Z,16.85
2019-01-18T18:17:37.592Z,16.75
2019-01-18T18:20:29.348Z,16.57
2019-01-18T18:23:48.201Z,15.88
2019-01-18T18:26:39.693Z,15.98
2019-01-18T18:29:39.469Z,15.15
2019-01-18T18:32:44.698Z,15.30
2019-01-18T18:35:58.129Z,15.00
2019-01-18T18:38:47.115Z,15.60
2019-01-18T18:41:43.447Z,15.65
2019-01-18T18:44:44.891Z,14.70
2019-01-18T18:47:45.305Z,14.63
2019-01-18T18:50:49.649Z,15.60
2019-01-18T18:53:59.448Z,14.45
2019-01-18T18:56:51.488Z,15.50
2019-01-18T18:59:48.996Z,16.62
2019-01-18T19:02:35.242Z,16.25
2019-01-18T19:05:32.821Z,15.72
2019-01-18T19:08:37.068Z,15.03
2019-01-18T19:11:28.693Z,14.87
2019-01-18T19:14:15.086Z,15.43
2019-01-18T19:17:00.866Z,13.58
2019-01-18T19:19:46.839Z,20.65
2019-01-18T19:22:32.806Z,16.73
2019-01-18T19:25:30.782Z,13.50
2019-01-18T19:28:25.154Z,11.70
2019-01-18T19:31:15.693Z,12.37
2019-01-18T19:34:04.462Z,13.58
2019-01-18T19:36:51.652Z,13.62
2019-01-18T19:39:46.549Z,11.75
2019-01-18T19:42:32.487Z,10.90
2019-01-18T19:45:25.781Z,11.08
2019-01-18T19:48:19.644Z,10.00
2019-01-18T19:51:11.910Z,11.12
2019-01-18T19:54:08.702Z,10.45
2019-01-18T19:56:57.508Z,10.55
2019-01-18T20:00:05.971Z,11.00
2019-01-18T20:02:57.336Z,10.60
2019-01-18T20:06:12.549Z,11.68
2019-01-18T20:08:54.911Z,10.93
2019-01-18T20:11:43.495Z,13.65
2019-01-18T20:14:42.795Z,13.18
2019-01-18T20:17:45.219Z,12.78
2019-01-18T20:20:25.171Z,12.78
2019-01-18T20:23:10.976Z,13.98
2019-01-18T20:26:02.711Z,13.32
2019-01-18T20:28:42.347Z,15.43
2019-01-18T20:31:30.366Z,18.57
2019-01-18T20:34:19.300Z,17.45
2019-01-18T20:37:23.486Z,15.68
2019-01-18T20:40:23.518Z,16.67
2019-01-18T20:43:23.076Z,17.12
2019-01-18T20:46:05.761Z,16.10
2019-01-18T20:48:42.968Z,17.12
2019-01-18T20:51:28.459Z,16.90
2019-01-18T20:54:26.536Z,15.15
2019-01-18T20:57:12.113Z,16.27
2019-01-18T20:59:55.344Z,14.93
2019-01-18T21:02:50.259Z,14.65
2019-01-18T21:05:29.959Z,15.63
2019-01-18T21:08:11.945Z,18.35
2019-01-18T21:11:03.941Z,20.10
2019-01-18T21:14:08.528Z,18.35
2019-01-18T21:16:51.556Z,19.12
2019-01-18T21:19:51.324Z,18.07
2019-01-18T21:22:58.533Z,17.45
2019-01-18T21:25:43.851Z,17.30
2019-01-18T21:28:30.152Z,15.65
2019-01-18T21:31:43.893Z,15.58
2019-01-18T21:34:35.516Z,15.58
2019-01-18T21:37:27.735Z,15.78
2019-01-18T21:40:04.604Z,15.48
2019-01-18T21:42:49.843Z,14.45
2019-01-18T21:45:45.386Z,14.53
2019-01-18T21:48:34.176Z,13.65
2019-01-18T21:51:23.490Z,16.32
2019-01-18T21:54:06.367Z,17.65
2019-01-18T21:56:40.606Z,15.23
2019-01-18T21:59:20.248Z,16.57
2019-01-18T22:02:08.698Z,16.10
2019-01-18T22:04:51.342Z,16.45
2019-01-18T22:07:34.336Z,16.57
2019-01-18T22:10:29.378Z,17.15
2019-01-18T22:13:20.922Z,16.65
2019-01-18T22:16:28.207Z,16.70
2019-01-18T22:19:32.435Z,17.05
2019-01-18T22:22:15.412Z,17.62
2019-01-18T22:25:16.316Z,17.07
2019-01-18T22:28:29.293Z,18.40
2019-01-18T22:31:15.123Z,18.87
2019-01-18T22:34:06.277Z,17.15
2019-01-18T22:36:43.171Z,18.00
2019-01-18T22:39:39.488Z,17.32
2019-01-18T22:42:19.126Z,16.95
2019-01-18T22:45:15.469Z,15.58
2019-01-18T22:48:05.898Z,16.10
2019-01-18T22:50:45.629Z,16.27
2019-01-18T22:53:34.314Z,15.93
2019-01-18T22:56:14.388Z,16.07
2019-01-18T22:58:56.755Z,15.00
2019-01-18T23:01:45.910Z,16.37
2019-01-18T23:04:25.760Z,14.50
